sensor_id;sensor_type;location;lat;lon;timestamp;temperature;humidity
17859;DHT22;35426;30.698;104.050;2024-01-06T00:02:00;10.80;99.90
17859;DHT22;35426;30.698;104.050;2024-01-06T00:04:35;10.80;99.90
17859;DHT22;35426;30.698;104.050;2024-01-06T00:07:09;10.70;99.90
17859;DHT22;35426;30.698;104.050;2024-01-06T00:09:44;10.80;99.90
17859;DHT22;35426;30.698;104.050;2024-01-06T00:12:25;10.90;99.90
17859;DHT22;35426;30.698;104.050;2024-01-06T00:15:00;10.80;99.90
17859;DHT22;35426;30.698;104.050;2024-01-06T00:17:34;10.70;99.90
17859;DHT22;35426;30.698;104.050;2024-01-06T00:20:08;10.60;99.90
17859;DHT22;35426;30.698;104.050;2024-01-06T00:22:43;10.50;99.90
17859;DHT22;35426;30.698;104.050;2024-01-06T00:25:17;10.40;99.90
17859;DHT22;35426;30.698;104.050;2024-01-06T00:27:52;10.30;99.90
17859;DHT22;35426;30.698;104.050;2024-01-06T00:30:27;10.30;99.90
17859;DHT22;35426;30.698;104.050;2024-01-06T00:33:01;10.30;99.90
17859;DHT22;35426;30.698;104.050;2024-01-06T00:35:35;10.20;99.90
17859;DHT22;35426;30.698;104.050;2024-01-06T00:38:09;10.30;99.90
17859;DHT22;35426;30.698;104.050;2024-01-06T00:40:43;10.20;99.90
17859;DHT22;35426;30.698;104.050;2024-01-06T00:43:19;10.10;99.90
17859;DHT22;35426;30.698;104.050;2024-01-06T00:45:53;10.10;99.90
17859;DHT22;35426;30.698;104.050;2024-01-06T00:48:26;10.00;99.90
17859;DHT22;35426;30.698;104.050;2024-01-06T00:51:00;10.00;99.90
17859;DHT22;35426;30.698;104.050;2024-01-06T00:53:35;10.00;99.90
17859;DHT22;35426;30.698;104.050;2024-01-06T00:56:11;10.00;99.90
17859;DHT22;35426;30.698;104.050;2024-01-06T00:58:46;10.00;99.90
17859;DHT22;35426;30.698;104.050;2024-01-06T01:01:20;10.10;99.90
17859;DHT22;35426;30.698;104.050;2024-01-06T01:03:54;10.10;99.90
17859;DHT22;35426;30.698;104.050;2024-01-06T01:06:27;10.20;99.90
17859;DHT22;35426;30.698;104.050;2024-01-06T01:09:02;10.20;99.90
17859;DHT22;35426;30.698;104.050;2024-01-06T01:11:36;10.10;99.90
17859;DHT22;35426;30.698;104.050;2024-01-06T01:14:14;10.10;99.90
17859;DHT22;35426;30.698;104.050;2024-01-06T01:16:51;10.30;99.90
17859;DHT22;35426;30.698;104.050;2024-01-06T01:19:26;10.50;99.90
17859;DHT22;35426;30.698;104.050;2024-01-06T01:22:03;10.50;99.90
17859;DHT22;35426;30.698;104.050;2024-01-06T01:24:37;10.60;99.90
17859;DHT22;35426;30.698;104.050;2024-01-06T01:27:11;10.50;99.90
17859;DHT22;35426;30.698;104.050;2024-01-06T01:29:48;10.30;99.90
17859;DHT22;35426;30.698;104.050;2024-01-06T01:32:25;10.50;99.90
17859;DHT22;35426;30.698;104.050;2024-01-06T01:34:58;10.60;99.90
17859;DHT22;35426;30.698;104.050;2024-01-06T01:37:33;10.50;99.90
17859;DHT22;35426;30.698;104.050;2024-01-06T01:40:08;10.40;99.90
17859;DHT22;35426;30.698;104.050;2024-01-06T01:42:43;10.60;99.90
17859;DHT22;35426;30.698;104.050;2024-01-06T01:45:19;10.60;99.90
17859;DHT22;35426;30.698;104.050;2024-01-06T01:47:53;10.80;99.90
17859;DHT22;35426;30.698;104.050;2024-01-06T01:50:27;10.90;99.90
17859;DHT22;35426;30.698;104.050;2024-01-06T01:53:01;10.80;99.90
17859;DHT22;35426;30.698;104.050;2024-01-06T01:55:35;10.90;99.90
17859;DHT22;35426;30.698;104.050;2024-01-06T01:58:13;10.70;99.90
17859;DHT22;35426;30.698;104.050;2024-01-06T02:00:52;10.20;99.90
17859;DHT22;35426;30.698;104.050;2024-01-06T02:03:27;10.70;99.90
17859;DHT22;35426;30.698;104.050;2024-01-06T02:06:09;10.60;99.90
17859;DHT22;35426;30.698;104.050;2024-01-06T02:08:44;10.60;99.90
17859;DHT22;35426;30.698;104.050;2024-01-06T02:11:19;10.90;99.90
17859;DHT22;35426;30.698;104.050;2024-01-06T02:13:53;11.10;99.90
17859;DHT22;35426;30.698;104.050;2024-01-06T02:16:30;10.80;99.90
17859;DHT22;35426;30.698;104.050;2024-01-06T02:19:03;10.90;99.90
17859;DHT22;35426;30.698;104.050;2024-01-06T02:21:42;10.50;99.90
17859;DHT22;35426;30.698;104.050;2024-01-06T02:24:24;10.60;99.90
17859;DHT22;35426;30.698;104.050;2024-01-06T02:26:58;11.10;99.90
17859;DHT22;35426;30.698;104.050;2024-01-06T02:29:32;11.00;99.90
17859;DHT22;35426;30.698;104.050;2024-01-06T02:32:08;11.40;99.90
17859;DHT22;35426;30.698;104.050;2024-01-06T02:34:42;11.50;99.90
17859;DHT22;35426;30.698;104.050;2024-01-06T02:37:16;11.70;99.90
17859;DHT22;35426;30.698;104.050;2024-01-06T02:39:54;11.80;99.90
17859;DHT22;35426;30.698;104.050;2024-01-06T02:42:27;11.90;99.90
17859;DHT22;35426;30.698;104.050;2024-01-06T02:45:02;12.00;99.90
17859;DHT22;35426;30.698;104.050;2024-01-06T02:47:35;12.00;99.90
17859;DHT22;35426;30.698;104.050;2024-01-06T02:50:09;12.20;99.90
17859;DHT22;35426;30.698;104.050;2024-01-06T02:52:43;11.90;99.90
17859;DHT22;35426;30.698;104.050;2024-01-06T02:55:19;12.00;99.90
17859;DHT22;35426;30.698;104.050;2024-01-06T02:57:53;12.10;99.90
17859;DHT22;35426;30.698;104.050;2024-01-06T03:00:33;12.10;99.90
17859;DHT22;35426;30.698;104.050;2024-01-06T03:03:07;12.40;99.90
17859;DHT22;35426;30.698;104.050;2024-01-06T03:05:40;12.30;99.90
17859;DHT22;35426;30.698;104.050;2024-01-06T03:08:18;12.40;99.90
17859;DHT22;35426;30.698;104.050;2024-01-06T03:10:55;12.50;99.90
17859;DHT22;35426;30.698;104.050;2024-01-06T03:13:31;12.20;99.90
17859;DHT22;35426;30.698;104.050;2024-01-06T03:16:06;12.40;99.90
17859;DHT22;35426;30.698;104.050;2024-01-06T03:18:39;12.80;99.90
17859;DHT22;35426;30.698;104.050;2024-01-06T03:21:22;13.00;99.90
17859;DHT22;35426;30.698;104.050;2024-01-06T03:23:58;12.90;99.90
17859;DHT22;35426;30.698;104.050;2024-01-06T03:26:34;12.60;99.90
17859;DHT22;35426;30.698;104.050;2024-01-06T03:29:08;12.20;99.90
17859;DHT22;35426;30.698;104.050;2024-01-06T03:31:43;12.30;99.90
17859;DHT22;35426;30.698;104.050;2024-01-06T03:34:17;12.60;99.90
17859;DHT22;35426;30.698;104.050;2024-01-06T03:36:51;12.60;99.90
17859;DHT22;35426;30.698;104.050;2024-01-06T03:39:25;12.80;99.90
17859;DHT22;35426;30.698;104.050;2024-01-06T03:42:01;12.90;99.90
17859;DHT22;35426;30.698;104.050;2024-01-06T03:44:34;12.80;99.90
17859;DHT22;35426;30.698;104.050;2024-01-06T03:47:09;13.00;99.90
17859;DHT22;35426;30.698;104.050;2024-01-06T03:49:43;13.10;99.90
17859;DHT22;35426;30.698;104.050;2024-01-06T03:52:17;13.00;99.90
17859;DHT22;35426;30.698;104.050;2024-01-06T03:54:51;13.40;99.90
17859;DHT22;35426;30.698;104.050;2024-01-06T03:57:28;13.20;99.90
17859;DHT22;35426;30.698;104.050;2024-01-06T04:00:02;13.40;99.90
17859;DHT22;35426;30.698;104.050;2024-01-06T04:02:36;13.40;99.90
17859;DHT22;35426;30.698;104.050;2024-01-06T04:05:09;13.30;99.90
17859;DHT22;35426;30.698;104.050;2024-01-06T04:07:43;12.70;99.90
17859;DHT22;35426;30.698;104.050;2024-01-06T04:10:17;13.00;99.90
17859;DHT22;35426;30.698;104.050;2024-01-06T04:12:53;13.00;99.90
17859;DHT22;35426;30.698;104.050;2024-01-06T04:15:26;13.30;99.90
17859;DHT22;35426;30.698;104.050;2024-01-06T04:18:03;13.60;99.90
17859;DHT22;35426;30.698;104.050;2024-01-06T04:20:38;13.10;99.90
17859;DHT22;35426;30.698;104.050;2024-01-06T04:23:12;13.20;99.90
17859;DHT22;35426;30.698;104.050;2024-01-06T04:25:45;13.20;99.90
17859;DHT22;35426;30.698;104.050;2024-01-06T04:28:21;13.50;99.90
17859;DHT22;35426;30.698;104.050;2024-01-06T04:30:55;13.30;99.90
17859;DHT22;35426;30.698;104.050;2024-01-06T04:33:29;13.60;99.90
17859;DHT22;35426;30.698;104.050;2024-01-06T04:36:07;13.90;99.90
17859;DHT22;35426;30.698;104.050;2024-01-06T04:38:43;14.10;99.90
17859;DHT22;35426;30.698;104.050;2024-01-06T04:41:17;14.20;99.90
17859;DHT22;35426;30.698;104.050;2024-01-06T04:43:53;13.80;99.90
17859;DHT22;35426;30.698;104.050;2024-01-06T04:46:27;14.20;99.90
17859;DHT22;35426;30.698;104.050;2024-01-06T04:49:01;14.60;99.90
17859;DHT22;35426;30.698;104.050;2024-01-06T04:51:35;15.00;99.90
17859;DHT22;35426;30.698;104.050;2024-01-06T04:54:09;15.30;99.90
17859;DHT22;35426;30.698;104.050;2024-01-06T04:56:43;15.40;99.90
17859;DHT22;35426;30.698;104.050;2024-01-06T04:59:21;15.30;99.90
17859;DHT22;35426;30.698;104.050;2024-01-06T05:01:56;15.10;99.90
17859;DHT22;35426;30.698;104.050;2024-01-06T05:04:31;15.20;99.90
17859;DHT22;35426;30.698;104.050;2024-01-06T05:07:07;15.30;99.90
17859;DHT22;35426;30.698;104.050;2024-01-06T05:09:44;15.40;99.90
17859;DHT22;35426;30.698;104.050;2024-01-06T05:12:18;15.40;99.90
17859;DHT22;35426;30.698;104.050;2024-01-06T05:14:55;15.50;99.90
17859;DHT22;35426;30.698;104.050;2024-01-06T05:17:30;15.20;99.90
17859;DHT22;35426;30.698;104.050;2024-01-06T05:20:05;15.10;99.90
17859;DHT22;35426;30.698;104.050;2024-01-06T05:22:39;15.50;99.90
17859;DHT22;35426;30.698;104.050;2024-01-06T05:25:13;15.90;99.90
17859;DHT22;35426;30.698;104.050;2024-01-06T05:27:48;15.70;99.90
17859;DHT22;35426;30.698;104.050;2024-01-06T05:30:27;15.90;99.90
17859;DHT22;35426;30.698;104.050;2024-01-06T05:33:03;15.70;99.90
17859;DHT22;35426;30.698;104.050;2024-01-06T05:35:41;15.90;99.90
17859;DHT22;35426;30.698;104.050;2024-01-06T05:38:16;15.90;99.90
17859;DHT22;35426;30.698;104.050;2024-01-06T05:40:50;15.90;99.90
17859;DHT22;35426;30.698;104.050;2024-01-06T05:43:24;15.90;99.90
17859;DHT22;35426;30.698;104.050;2024-01-06T05:45:59;15.90;99.90
17859;DHT22;35426;30.698;104.050;2024-01-06T05:48:33;16.00;99.90
17859;DHT22;35426;30.698;104.050;2024-01-06T05:51:07;16.10;99.90
17859;DHT22;35426;30.698;104.050;2024-01-06T05:53:41;16.10;99.90
17859;DHT22;35426;30.698;104.050;2024-01-06T05:56:23;16.10;99.90
17859;DHT22;35426;30.698;104.050;2024-01-06T05:58:58;16.00;99.90
17859;DHT22;35426;30.698;104.050;2024-01-06T06:01:36;16.00;99.90
17859;DHT22;35426;30.698;104.050;2024-01-06T06:04:10;15.70;99.90
17859;DHT22;35426;30.698;104.050;2024-01-06T06:06:44;15.90;99.90
17859;DHT22;35426;30.698;104.050;2024-01-06T06:09:17;15.80;99.90
17859;DHT22;35426;30.698;104.050;2024-01-06T06:11:53;15.70;99.90
17859;DHT22;35426;30.698;104.050;2024-01-06T06:14:27;15.30;99.90
17859;DHT22;35426;30.698;104.050;2024-01-06T06:17:03;15.70;99.90
17859;DHT22;35426;30.698;104.050;2024-01-06T06:19:37;16.10;99.90
17859;DHT22;35426;30.698;104.050;2024-01-06T06:22:11;16.20;99.90
17859;DHT22;35426;30.698;104.050;2024-01-06T06:25:17;16.30;99.90
17859;DHT22;35426;30.698;104.050;2024-01-06T06:27:55;16.30;99.90
17859;DHT22;35426;30.698;104.050;2024-01-06T06:30:29;15.70;99.90
17859;DHT22;35426;30.698;104.050;2024-01-06T06:33:05;15.80;99.90
17859;DHT22;35426;30.698;104.050;2024-01-06T06:35:38;15.90;99.90
17859;DHT22;35426;30.698;104.050;2024-01-06T06:38:12;16.10;99.90
17859;DHT22;35426;30.698;104.050;2024-01-06T06:40:45;16.30;99.90
17859;DHT22;35426;30.698;104.050;2024-01-06T06:43:19;15.80;99.90
17859;DHT22;35426;30.698;104.050;2024-01-06T06:45:53;16.00;99.90
17859;DHT22;35426;30.698;104.050;2024-01-06T06:48:30;15.90;99.90
17859;DHT22;35426;30.698;104.050;2024-01-06T06:51:05;16.00;99.90
17859;DHT22;35426;30.698;104.050;2024-01-06T06:53:38;16.10;99.90
17859;DHT22;35426;30.698;104.050;2024-01-06T06:56:12;15.80;99.90
17859;DHT22;35426;30.698;104.050;2024-01-06T06:58:49;16.00;99.90
17859;DHT22;35426;30.698;104.050;2024-01-06T07:01:23;15.90;99.90
17859;DHT22;35426;30.698;104.050;2024-01-06T07:04:02;16.10;99.90
17859;DHT22;35426;30.698;104.050;2024-01-06T07:06:36;16.00;99.90
17859;DHT22;35426;30.698;104.050;2024-01-06T07:09:12;16.10;99.90
17859;DHT22;35426;30.698;104.050;2024-01-06T07:11:48;16.10;99.90
17859;DHT22;35426;30.698;104.050;2024-01-06T07:14:23;16.20;99.90
17859;DHT22;35426;30.698;104.050;2024-01-06T07:16:56;15.70;99.90
17859;DHT22;35426;30.698;104.050;2024-01-06T07:19:32;15.70;99.90
17859;DHT22;35426;30.698;104.050;2024-01-06T07:22:06;15.70;99.90
17859;DHT22;35426;30.698;104.050;2024-01-06T07:24:39;16.00;99.90
17859;DHT22;35426;30.698;104.050;2024-01-06T07:27:13;16.10;99.90
17859;DHT22;35426;30.698;104.050;2024-01-06T07:29:47;16.20;99.90
17859;DHT22;35426;30.698;104.050;2024-01-06T07:32:22;16.20;99.90
17859;DHT22;35426;30.698;104.050;2024-01-06T07:35:00;16.20;99.90
17859;DHT22;35426;30.698;104.050;2024-01-06T07:37:42;16.20;99.90
17859;DHT22;35426;30.698;104.050;2024-01-06T07:40:30;16.30;99.90
17859;DHT22;35426;30.698;104.050;2024-01-06T07:43:05;16.10;99.90
17859;DHT22;35426;30.698;104.050;2024-01-06T07:45:39;15.40;99.90
17859;DHT22;35426;30.698;104.050;2024-01-06T07:48:13;15.60;99.90
17859;DHT22;35426;30.698;104.050;2024-01-06T07:51:01;15.70;99.90
17859;DHT22;35426;30.698;104.050;2024-01-06T07:54:06;15.90;99.90
17859;DHT22;35426;30.698;104.050;2024-01-06T07:56:40;15.80;99.90
17859;DHT22;35426;30.698;104.050;2024-01-06T07:59:14;15.80;99.90
17859;DHT22;35426;30.698;104.050;2024-01-06T08:01:49;15.60;99.90
17859;DHT22;35426;30.698;104.050;2024-01-06T08:04:23;15.00;99.90
17859;DHT22;35426;30.698;104.050;2024-01-06T08:06:59;14.90;99.90
17859;DHT22;35426;30.698;104.050;2024-01-06T08:09:32;14.90;99.90
17859;DHT22;35426;30.698;104.050;2024-01-06T08:12:11;15.10;99.90
17859;DHT22;35426;30.698;104.050;2024-01-06T08:14:45;14.90;99.90
17859;DHT22;35426;30.698;104.050;2024-01-06T08:17:24;14.80;99.90
17859;DHT22;35426;30.698;104.050;2024-01-06T08:20:03;14.60;99.90
17859;DHT22;35426;30.698;104.050;2024-01-06T08:22:39;14.70;99.90
17859;DHT22;35426;30.698;104.050;2024-01-06T08:25:19;14.60;99.90
17859;DHT22;35426;30.698;104.050;2024-01-06T08:27:55;14.60;99.90
17859;DHT22;35426;30.698;104.050;2024-01-06T08:30:33;14.80;99.90
17859;DHT22;35426;30.698;104.050;2024-01-06T08:33:08;14.70;99.90
17859;DHT22;35426;30.698;104.050;2024-01-06T08:35:42;14.60;99.90
17859;DHT22;35426;30.698;104.050;2024-01-06T08:38:18;14.50;99.90
17859;DHT22;35426;30.698;104.050;2024-01-06T08:40:53;14.20;99.90
17859;DHT22;35426;30.698;104.050;2024-01-06T08:43:28;14.30;99.90
17859;DHT22;35426;30.698;104.050;2024-01-06T08:46:02;14.20;99.90
17859;DHT22;35426;30.698;104.050;2024-01-06T08:48:37;14.10;99.90
17859;DHT22;35426;30.698;104.050;2024-01-06T08:51:12;14.00;99.90
17859;DHT22;35426;30.698;104.050;2024-01-06T08:53:50;14.00;99.90
17859;DHT22;35426;30.698;104.050;2024-01-06T08:56:25;14.20;99.90
17859;DHT22;35426;30.698;104.050;2024-01-06T08:58:59;14.30;99.90
17859;DHT22;35426;30.698;104.050;2024-01-06T09:01:32;14.20;99.90
17859;DHT22;35426;30.698;104.050;2024-01-06T09:04:07;14.10;99.90
17859;DHT22;35426;30.698;104.050;2024-01-06T09:06:42;14.10;99.90
17859;DHT22;35426;30.698;104.050;2024-01-06T09:09:20;13.90;99.90
17859;DHT22;35426;30.698;104.050;2024-01-06T09:11:55;13.80;99.90
17859;DHT22;35426;30.698;104.050;2024-01-06T09:14:29;13.70;99.90
17859;DHT22;35426;30.698;104.050;2024-01-06T09:17:05;13.80;99.90
17859;DHT22;35426;30.698;104.050;2024-01-06T09:19:39;13.90;99.90
17859;DHT22;35426;30.698;104.050;2024-01-06T09:22:13;13.90;99.90
17859;DHT22;35426;30.698;104.050;2024-01-06T09:24:49;13.90;99.90
17859;DHT22;35426;30.698;104.050;2024-01-06T09:27:23;13.80;99.90
17859;DHT22;35426;30.698;104.050;2024-01-06T09:29:57;13.70;99.90
17859;DHT22;35426;30.698;104.050;2024-01-06T09:32:32;13.60;99.90
17859;DHT22;35426;30.698;104.050;2024-01-06T09:35:08;13.60;99.90
17859;DHT22;35426;30.698;104.050;2024-01-06T09:37:41;13.50;99.90
17859;DHT22;35426;30.698;104.050;2024-01-06T09:40:24;13.60;99.90
17859;DHT22;35426;30.698;104.050;2024-01-06T09:43:00;13.60;99.90
17859;DHT22;35426;30.698;104.050;2024-01-06T09:45:33;13.40;99.90
17859;DHT22;35426;30.698;104.050;2024-01-06T09:48:11;13.30;99.90
17859;DHT22;35426;30.698;104.050;2024-01-06T09:50:47;13.50;99.90
17859;DHT22;35426;30.698;104.050;2024-01-06T09:53:21;13.40;99.90
17859;DHT22;35426;30.698;104.050;2024-01-06T09:55:59;13.30;99.90
17859;DHT22;35426;30.698;104.050;2024-01-06T09:58:35;13.10;99.90
17859;DHT22;35426;30.698;104.050;2024-01-06T10:01:10;13.10;99.90
17859;DHT22;35426;30.698;104.050;2024-01-06T10:03:45;13.10;99.90
17859;DHT22;35426;30.698;104.050;2024-01-06T10:06:19;13.10;99.90
17859;DHT22;35426;30.698;104.050;2024-01-06T10:08:55;13.00;99.90
17859;DHT22;35426;30.698;104.050;2024-01-06T10:11:31;12.90;99.90
17859;DHT22;35426;30.698;104.050;2024-01-06T10:14:05;13.00;99.90
17859;DHT22;35426;30.698;104.050;2024-01-06T10:16:40;13.00;99.90
17859;DHT22;35426;30.698;104.050;2024-01-06T10:19:13;13.00;99.90
17859;DHT22;35426;30.698;104.050;2024-01-06T10:21:48;13.00;99.90
17859;DHT22;35426;30.698;104.050;2024-01-06T10:24:22;13.00;99.90
17859;DHT22;35426;30.698;104.050;2024-01-06T10:27:03;12.90;99.90
17859;DHT22;35426;30.698;104.050;2024-01-06T10:29:37;12.80;99.90
17859;DHT22;35426;30.698;104.050;2024-01-06T10:32:12;12.80;99.90
17859;DHT22;35426;30.698;104.050;2024-01-06T10:34:49;12.70;99.90
17859;DHT22;35426;30.698;104.050;2024-01-06T10:37:23;12.80;99.90
17859;DHT22;35426;30.698;104.050;2024-01-06T10:40:08;13.00;99.90
17859;DHT22;35426;30.698;104.050;2024-01-06T10:42:45;12.90;99.90
17859;DHT22;35426;30.698;104.050;2024-01-06T10:45:19;12.90;99.90
17859;DHT22;35426;30.698;104.050;2024-01-06T10:47:54;12.80;99.90
17859;DHT22;35426;30.698;104.050;2024-01-06T10:50:29;12.80;99.90
17859;DHT22;35426;30.698;104.050;2024-01-06T10:53:04;12.80;99.90
17859;DHT22;35426;30.698;104.050;2024-01-06T10:55:40;13.00;99.90
17859;DHT22;35426;30.698;104.050;2024-01-06T10:58:18;13.20;99.90
17859;DHT22;35426;30.698;104.050;2024-01-06T11:00:52;13.10;99.90
17859;DHT22;35426;30.698;104.050;2024-01-06T11:03:29;13.20;99.90
17859;DHT22;35426;30.698;104.050;2024-01-06T11:06:04;13.30;99.90
17859;DHT22;35426;30.698;104.050;2024-01-06T11:08:46;13.20;99.90
17859;DHT22;35426;30.698;104.050;2024-01-06T11:11:25;13.00;99.90
17859;DHT22;35426;30.698;104.050;2024-01-06T11:14:23;13.00;99.90
17859;DHT22;35426;30.698;104.050;2024-01-06T11:16:58;12.90;99.90
17859;DHT22;35426;30.698;104.050;2024-01-06T11:19:47;13.00;99.90
17859;DHT22;35426;30.698;104.050;2024-01-06T11:22:27;13.00;99.90
17859;DHT22;35426;30.698;104.050;2024-01-06T11:25:07;13.10;99.90
17859;DHT22;35426;30.698;104.050;2024-01-06T11:27:45;13.10;99.90
17859;DHT22;35426;30.698;104.050;2024-01-06T11:30:25;13.10;99.90
17859;DHT22;35426;30.698;104.050;2024-01-06T11:32:59;13.30;99.90
17859;DHT22;35426;30.698;104.050;2024-01-06T11:35:34;13.20;99.90
17859;DHT22;35426;30.698;104.050;2024-01-06T11:38:11;13.30;99.90
17859;DHT22;35426;30.698;104.050;2024-01-06T11:40:46;13.30;99.90
17859;DHT22;35426;30.698;104.050;2024-01-06T11:43:28;13.30;99.90
17859;DHT22;35426;30.698;104.050;2024-01-06T11:46:09;13.20;99.90
17859;DHT22;35426;30.698;104.050;2024-01-06T11:48:45;13.20;99.90
17859;DHT22;35426;30.698;104.050;2024-01-06T11:51:22;13.30;99.90
17859;DHT22;35426;30.698;104.050;2024-01-06T11:53:57;13.50;99.90
17859;DHT22;35426;30.698;104.050;2024-01-06T11:56:29;13.30;99.90
17859;DHT22;35426;30.698;104.050;2024-01-06T11:59:04;13.00;99.90
17859;DHT22;35426;30.698;104.050;2024-01-06T12:05:11;13.20;99.90
17859;DHT22;35426;30.698;104.050;2024-01-06T12:07:55;13.20;99.90
17859;DHT22;35426;30.698;104.050;2024-01-06T12:10:31;13.00;99.90
17859;DHT22;35426;30.698;104.050;2024-01-06T12:13:06;13.20;99.90
17859;DHT22;35426;30.698;104.050;2024-01-06T12:16:05;13.30;99.90
17859;DHT22;35426;30.698;104.050;2024-01-06T12:18:40;12.90;99.90
17859;DHT22;35426;30.698;104.050;2024-01-06T12:21:18;13.00;99.90
17859;DHT22;35426;30.698;104.050;2024-01-06T12:23:53;13.10;99.90
17859;DHT22;35426;30.698;104.050;2024-01-06T12:26:27;13.20;99.90
17859;DHT22;35426;30.698;104.050;2024-01-06T12:31:47;13.00;99.90
17859;DHT22;35426;30.698;104.050;2024-01-06T12:34:23;13.00;99.90
17859;DHT22;35426;30.698;104.050;2024-01-06T12:37:01;12.90;99.90
17859;DHT22;35426;30.698;104.050;2024-01-06T12:39:38;13.10;99.90
17859;DHT22;35426;30.698;104.050;2024-01-06T12:42:16;13.20;99.90
17859;DHT22;35426;30.698;104.050;2024-01-06T12:44:52;13.30;99.90
17859;DHT22;35426;30.698;104.050;2024-01-06T12:47:26;13.10;99.90
17859;DHT22;35426;30.698;104.050;2024-01-06T12:49:59;13.00;99.90
17859;DHT22;35426;30.698;104.050;2024-01-06T12:52:36;13.00;99.90
17859;DHT22;35426;30.698;104.050;2024-01-06T12:55:11;13.00;99.90
17859;DHT22;35426;30.698;104.050;2024-01-06T12:57:44;13.00;99.90
17859;DHT22;35426;30.698;104.050;2024-01-06T13:00:19;12.90;99.90
17859;DHT22;35426;30.698;104.050;2024-01-06T13:02:53;12.80;99.90
17859;DHT22;35426;30.698;104.050;2024-01-06T13:05:27;12.70;99.90
17859;DHT22;35426;30.698;104.050;2024-01-06T13:08:03;12.90;99.90
17859;DHT22;35426;30.698;104.050;2024-01-06T13:10:37;12.90;99.90
17859;DHT22;35426;30.698;104.050;2024-01-06T13:13:11;12.90;99.90
17859;DHT22;35426;30.698;104.050;2024-01-06T13:15:46;12.90;99.90
17859;DHT22;35426;30.698;104.050;2024-01-06T13:18:21;12.90;99.90
17859;DHT22;35426;30.698;104.050;2024-01-06T13:20:55;12.80;99.90
17859;DHT22;35426;30.698;104.050;2024-01-06T13:23:31;12.80;99.90
17859;DHT22;35426;30.698;104.050;2024-01-06T13:26:06;12.70;99.90
17859;DHT22;35426;30.698;104.050;2024-01-06T13:28:40;12.70;99.90
17859;DHT22;35426;30.698;104.050;2024-01-06T13:31:14;12.60;99.90
17859;DHT22;35426;30.698;104.050;2024-01-06T13:33:48;12.40;99.90
17859;DHT22;35426;30.698;104.050;2024-01-06T13:36:22;12.50;99.90
17859;DHT22;35426;30.698;104.050;2024-01-06T13:39:04;12.60;99.90
17859;DHT22;35426;30.698;104.050;2024-01-06T13:41:39;12.70;99.90
17859;DHT22;35426;30.698;104.050;2024-01-06T13:44:14;12.80;99.90
17859;DHT22;35426;30.698;104.050;2024-01-06T13:46:56;12.70;99.90
17859;DHT22;35426;30.698;104.050;2024-01-06T13:49:31;12.70;99.90
17859;DHT22;35426;30.698;104.050;2024-01-06T13:52:06;12.70;99.90
17859;DHT22;35426;30.698;104.050;2024-01-06T13:54:42;12.90;99.90
17859;DHT22;35426;30.698;104.050;2024-01-06T13:57:19;12.90;99.90
17859;DHT22;35426;30.698;104.050;2024-01-06T13:59:52;12.60;99.90
17859;DHT22;35426;30.698;104.050;2024-01-06T14:02:31;12.60;99.90
17859;DHT22;35426;30.698;104.050;2024-01-06T14:05:05;12.40;99.90
17859;DHT22;35426;30.698;104.050;2024-01-06T14:07:40;12.50;99.90
17859;DHT22;35426;30.698;104.050;2024-01-06T14:10:19;12.40;99.90
17859;DHT22;35426;30.698;104.050;2024-01-06T14:12:53;12.20;99.90
17859;DHT22;35426;30.698;104.050;2024-01-06T14:15:27;12.50;99.90
17859;DHT22;35426;30.698;104.050;2024-01-06T14:18:02;12.30;99.90
17859;DHT22;35426;30.698;104.050;2024-01-06T14:20:37;12.30;99.90
17859;DHT22;35426;30.698;104.050;2024-01-06T14:23:12;12.20;99.90
17859;DHT22;35426;30.698;104.050;2024-01-06T14:25:48;12.50;99.90
17859;DHT22;35426;30.698;104.050;2024-01-06T14:28:24;12.70;99.90
17859;DHT22;35426;30.698;104.050;2024-01-06T14:30:58;12.80;99.90
17859;DHT22;35426;30.698;104.050;2024-01-06T14:33:35;12.80;99.90
17859;DHT22;35426;30.698;104.050;2024-01-06T14:36:09;12.60;99.90
17859;DHT22;35426;30.698;104.050;2024-01-06T14:38:43;12.50;99.90
17859;DHT22;35426;30.698;104.050;2024-01-06T14:41:19;12.50;99.90
17859;DHT22;35426;30.698;104.050;2024-01-06T14:43:54;12.50;99.90
17859;DHT22;35426;30.698;104.050;2024-01-06T14:46:28;12.40;99.90
17859;DHT22;35426;30.698;104.050;2024-01-06T14:49:03;12.60;99.90
17859;DHT22;35426;30.698;104.050;2024-01-06T14:51:37;12.70;99.90
17859;DHT22;35426;30.698;104.050;2024-01-06T14:54:11;12.80;99.90
17859;DHT22;35426;30.698;104.050;2024-01-06T14:56:47;12.70;99.90
17859;DHT22;35426;30.698;104.050;2024-01-06T14:59:21;12.70;99.90
17859;DHT22;35426;30.698;104.050;2024-01-06T15:01:55;12.80;99.90
17859;DHT22;35426;30.698;104.050;2024-01-06T15:04:29;12.80;99.90
17859;DHT22;35426;30.698;104.050;2024-01-06T15:07:03;12.90;99.90
17859;DHT22;35426;30.698;104.050;2024-01-06T15:09:39;12.80;99.90
17859;DHT22;35426;30.698;104.050;2024-01-06T15:12:15;12.90;99.90
17859;DHT22;35426;30.698;104.050;2024-01-06T15:14:49;12.80;99.90
17859;DHT22;35426;30.698;104.050;2024-01-06T15:17:25;12.70;99.90
17859;DHT22;35426;30.698;104.050;2024-01-06T15:19:59;12.60;99.90
17859;DHT22;35426;30.698;104.050;2024-01-06T15:22:32;12.70;99.90
17859;DHT22;35426;30.698;104.050;2024-01-06T15:25:10;12.70;99.90
17859;DHT22;35426;30.698;104.050;2024-01-06T15:27:46;12.80;99.90
17859;DHT22;35426;30.698;104.050;2024-01-06T15:30:20;12.70;99.90
17859;DHT22;35426;30.698;104.050;2024-01-06T15:32:54;12.70;99.90
17859;DHT22;35426;30.698;104.050;2024-01-06T15:35:29;12.70;99.90
17859;DHT22;35426;30.698;104.050;2024-01-06T15:38:03;12.70;99.90
17859;DHT22;35426;30.698;104.050;2024-01-06T15:40:38;12.60;99.90
17859;DHT22;35426;30.698;104.050;2024-01-06T15:43:14;12.70;99.90
17859;DHT22;35426;30.698;104.050;2024-01-06T15:45:48;12.70;99.90
17859;DHT22;35426;30.698;104.050;2024-01-06T15:48:23;12.50;99.90
17859;DHT22;35426;30.698;104.050;2024-01-06T15:50:57;12.50;99.90
17859;DHT22;35426;30.698;104.050;2024-01-06T15:53:31;12.20;99.90
17859;DHT22;35426;30.698;104.050;2024-01-06T15:56:06;12.40;99.90
17859;DHT22;35426;30.698;104.050;2024-01-06T15:58:44;12.50;99.90
17859;DHT22;35426;30.698;104.050;2024-01-06T16:01:20;12.50;99.90